Time;durP1;ratioP1;P1;durP2;ratioP2;P2;SDS_P1;SDS_P2;PMS_P1;PMS_P2;Temp;Humidity;BMP_temperature;BMP_pressure;BME280_temperature;BME280_humidity;BME280_pressure;Samples;Min_cycle;Max_cycle;Signal;HPM_P1;HPM_P2
2021/11/02 00:01:07;;;;;;;39.18;24.63;;;;;;;8.62;63.13;100408.52;1706277;80;21390;-60
2021/11/02 00:03:34;;;;;;;36.03;22.75;;;;;;;8.59;63.23;100407.45;1741929;80;21120;-60
2021/11/02 00:06:00;;;;;;;33.40;24.32;;;;;;;8.59;63.20;100408.77;1708808;80;21085;-60
2021/11/02 00:08:26;;;;;;;32.05;21.52;;;;;;;8.65;63.12;100396.50;1737859;80;21888;-60
2021/11/02 00:10:53;;;;;;;40.43;23.85;;;;;;;8.74;63.09;100398.93;1733816;80;21395;-59
2021/11/02 00:13:24;;;;;;;36.70;22.90;;;;;;;8.80;62.97;100397.67;1721625;80;21110;-61
2021/11/02 00:15:57;;;;;;;37.17;23.57;;;;;;;8.83;62.98;100396.14;1723941;80;21016;-58
2021/11/02 00:18:26;;;;;;;32.17;24.10;;;;;;;8.86;62.88;100391.50;1736923;80;21016;-59
2021/11/02 00:20:59;;;;;;;36.73;23.50;;;;;;;8.88;62.71;100392.70;1735926;80;21055;-60
2021/11/02 00:23:20;;;;;;;38.78;22.87;;;;;;;8.91;62.72;100388.55;1729872;80;21331;-60
2021/11/02 00:25:48;;;;;;;38.75;25.05;;;;;;;8.93;62.58;100390.10;1729929;80;21068;-61
2021/11/02 00:28:14;;;;;;;38.25;24.18;;;;;;;8.92;62.61;100386.27;1735894;80;21537;-60
2021/11/02 00:30:40;;;;;;;36.85;24.23;;;;;;;8.90;62.67;100381.62;1738610;81;21063;-60
2021/11/02 00:33:07;;;;;;;35.25;23.55;;;;;;;8.88;62.68;100384.84;1740958;80;21118;-61
2021/11/02 00:35:34;;;;;;;40.55;24.98;;;;;;;8.86;62.59;100383.63;1736158;80;20991;-60
2021/11/02 00:38:00;;;;;;;37.00;22.95;;;;;;;8.82;62.78;100380.02;1736711;80;21051;-60
2021/11/02 00:40:27;;;;;;;31.15;21.70;;;;;;;8.85;62.69;100390.30;1735160;80;21041;-59
2021/11/02 00:42:59;;;;;;;31.35;21.50;;;;;;;8.92;62.52;100387.58;1736172;80;21475;-59
2021/11/02 00:45:33;;;;;;;40.23;23.40;;;;;;;8.98;62.49;100391.08;1719996;80;21746;-60
2021/11/02 00:47:58;;;;;;;37.05;22.40;;;;;;;9.01;62.43;100396.11;1724240;80;21058;-60
2021/11/02 00:50:26;;;;;;;33.33;23.22;;;;;;;9.00;62.53;100397.05;1739373;80;21127;-60
2021/11/02 00:52:55;;;;;;;37.28;23.05;;;;;;;8.99;62.61;100399.78;1737612;80;21138;-60
2021/11/02 00:55:21;;;;;;;37.58;23.20;;;;;;;8.98;62.76;100392.84;1735681;80;21067;-60
2021/11/02 00:57:47;;;;;;;37.58;25.23;;;;;;;8.99;62.68;100384.86;1721594;80;21081;-60
2021/11/02 01:00:14;;;;;;;36.28;24.75;;;;;;;8.99;62.67;100373.54;1722661;80;21304;-61
2021/11/02 01:02:43;;;;;;;39.38;24.70;;;;;;;9.02;62.73;100374.15;1733234;80;21076;-60
2021/11/02 01:05:10;;;;;;;36.17;24.27;;;;;;;8.99;62.76;100375.68;1725788;82;21069;-61
2021/11/02 01:07:36;;;;;;;31.10;23.12;;;;;;;8.97;62.90;100381.52;1734281;80;21067;-60
2021/11/02 01:10:05;;;;;;;36.13;24.60;;;;;;;8.93;63.12;100370.42;1734653;80;21066;-60
2021/11/02 01:12:33;;;;;;;37.70;24.65;;;;;;;8.91;63.25;100372.81;1738667;81;21023;-60
2021/11/02 01:15:00;;;;;;;31.27;22.02;;;;;;;8.92;63.28;100374.46;1734464;81;21153;-61
2021/11/02 01:17:28;;;;;;;32.17;21.00;;;;;;;9.00;63.27;100366.87;1720717;81;21081;-59
2021/11/02 01:19:54;;;;;;;32.50;22.65;;;;;;;9.05;63.26;100354.23;1717425;80;21092;-60
2021/11/02 01:22:21;;;;;;;37.83;23.60;;;;;;;9.11;63.23;100356.88;1734434;80;21078;-60
2021/11/02 01:24:48;;;;;;;36.40;23.15;;;;;;;9.13;63.16;100357.62;1733498;80;21145;-59
2021/11/02 01:27:15;;;;;;;34.60;23.15;;;;;;;9.13;63.17;100344.50;1734458;80;22201;-59
2021/11/02 01:29:42;;;;;;;37.20;24.82;;;;;;;9.10;63.15;100346.86;1737225;80;21973;-60
2021/11/02 01:32:09;;;;;;;34.40;24.43;;;;;;;9.07;63.10;100344.45;1721284;80;21082;-59
2021/11/02 01:34:38;;;;;;;32.98;22.27;;;;;;;9.05;63.05;100348.98;1737578;80;21070;-59
2021/11/02 01:37:07;;;;;;;38.45;25.12;;;;;;;9.01;63.16;100357.20;1725361;81;21009;-60
2021/11/02 01:39:35;;;;;;;43.68;26.10;;;;;;;8.99;63.21;100354.69;1736701;80;21024;-60
2021/11/02 01:42:01;;;;;;;37.93;24.80;;;;;;;8.97;63.25;100351.83;1738897;81;21126;-60
2021/11/02 01:44:29;;;;;;;34.48;22.58;;;;;;;8.91;63.22;100351.81;1732405;80;21047;-60
2021/11/02 01:46:56;;;;;;;38.95;23.95;;;;;;;8.84;63.39;100340.93;1736044;80;21054;-59
2021/11/02 01:49:23;;;;;;;34.50;23.10;;;;;;;8.84;63.48;100334.83;1735978;80;21667;-60
2021/11/02 01:51:49;;;;;;;32.10;21.40;;;;;;;8.91;63.41;100335.59;1734314;81;21054;-60
2021/11/02 01:54:17;;;;;;;37.10;23.12;;;;;;;8.99;63.30;100331.55;1720485;81;21505;-60
2021/11/02 01:56:49;;;;;;;37.67;23.83;;;;;;;9.01;63.32;100333.58;1737624;80;21023;-61
2021/11/02 01:59:22;;;;;;;38.80;24.43;;;;;;;9.00;63.41;100333.23;1735672;80;20964;-60
2021/11/02 02:02:28;;;;;;;36.60;24.27;;;;;;;9.00;63.56;100334.06;1737631;80;21098;-59
2021/11/02 02:05:06;;;;;;;38.48;24.75;;;;;;;8.98;63.67;100325.47;1737198;80;21072;-60
2021/11/02 02:07:50;;;;;;;37.30;21.93;;;;;;;8.95;63.79;100327.48;1734164;80;21152;-60
2021/11/02 02:11:03;;;;;;;34.45;23.42;;;;;;;8.89;63.93;100319.13;1736497;80;21670;-61
2021/11/02 02:13:42;;;;;;;37.85;24.52;;;;;;;8.86;63.94;100321.97;1721956;81;21555;-59
2021/11/02 02:16:27;;;;;;;38.17;25.37;;;;;;;8.80;64.17;100313.23;1741069;81;20992;-59
2021/11/02 02:19:17;;;;;;;30.83;23.53;;;;;;;8.78;64.22;100318.24;1728575;82;20985;-60
2021/11/02 02:22:07;;;;;;;36.90;22.07;;;;;;;8.79;64.30;100307.61;1660713;81;21092;-60
2021/11/02 02:25:08;;;;;;;32.25;22.45;;;;;;;8.88;64.23;100302.18;1742440;81;21074;-59
2021/11/02 02:27:55;;;;;;;35.90;22.55;;;;;;;8.98;64.23;100302.30;1741786;81;21065;-59
2021/11/02 02:30:23;;;;;;;33.85;22.85;;;;;;;8.99;64.27;100304.81;1738915;80;21082;-59
2021/11/02 02:32:52;;;;;;;34.75;23.73;;;;;;;8.98;64.48;100295.74;1726389;81;21070;-59
2021/11/02 02:35:18;;;;;;;40.08;24.40;;;;;;;8.96;64.47;100289.33;1744439;80;21108;-59
2021/11/02 02:37:47;;;;;;;42.33;25.27;;;;;;;8.96;64.53;100296.34;1743248;81;21074;-59
2021/11/02 02:40:14;;;;;;;34.13;23.32;;;;;;;8.95;64.63;100293.38;1742561;81;21601;-59
2021/11/02 02:42:41;;;;;;;31.15;22.40;;;;;;;8.91;64.62;100287.52;1730177;80;22217;-59
2021/11/02 02:45:09;;;;;;;35.33;24.27;;;;;;;8.87;64.73;100288.69;1738752;80;21535;-59
2021/11/02 02:47:37;;;;;;;38.00;25.23;;;;;;;8.84;64.82;100288.45;1663552;82;21159;-59
2021/11/02 02:50:06;;;;;;;32.60;22.02;;;;;;;8.82;64.87;100277.70;1725939;82;21043;-59
2021/11/02 02:52:33;;;;;;;31.52;21.30;;;;;;;8.83;64.89;100277.59;1737307;80;21023;-59
2021/11/02 02:55:00;;;;;;;33.73;23.15;;;;;;;8.92;64.86;100285.23;1740204;81;21764;-59
2021/11/02 02:57:27;;;;;;;36.15;23.95;;;;;;;9.00;64.84;100273.70;1744678;80;21125;-59
2021/11/02 02:59:55;;;;;;;36.58;23.65;;;;;;;9.05;65.01;100272.05;1745256;81;21149;-59
2021/11/02 03:02:24;;;;;;;35.73;24.45;;;;;;;9.07;65.09;100278.84;1744803;80;21031;-59
2021/11/02 03:04:53;;;;;;;38.00;25.60;;;;;;;9.09;65.08;100283.52;1723819;81;21098;-59
2021/11/02 03:07:20;;;;;;;34.30;24.45;;;;;;;9.11;64.89;100283.38;1684269;80;21043;-59
2021/11/02 03:09:47;;;;;;;32.58;22.62;;;;;;;9.10;64.87;100284.34;1724758;81;21035;-59
2021/11/02 03:12:15;;;;;;;35.05;23.40;;;;;;;9.06;64.84;100283.74;1748961;80;22351;-59
2021/11/02 03:17:24;;;;;;;35.55;22.98;;;;;;;9.03;64.96;100280.03;1698249;80;21111;-59
2021/11/02 03:50:17;;;;;;;32.67;21.93;;;;;;;9.07;65.33;100257.84;1733783;80;21121;-60
2021/11/02 03:55:02;;;;;;;33.48;21.37;;;;;;;9.00;65.66;100255.33;1749546;80;21394;-59
2021/11/02 04:30:34;;;;;;;27.80;19.73;;;;;;;9.20;65.62;100224.11;1671549;83;21793;-60
2021/11/02 05:08:31;;;;;;;32.50;21.27;;;;;;;9.10;66.04;100189.36;1666567;84;21603;-60
2021/11/02 05:49:47;;;;;;;29.45;20.37;;;;;;;9.15;66.64;100194.75;1671317;83;21228;-61
2021/11/02 05:57:38;;;;;;;34.40;21.25;;;;;;;9.22;66.60;100195.94;1673471;83;21102;-63
2021/11/02 06:00:00;;;;;;;33.23;19.98;;;;;;;9.22;66.48;100194.62;1685240;83;21161;-60
2021/11/02 06:07:47;;;;;;;32.55;19.80;;;;;;;9.13;66.32;100210.63;1691546;83;21149;-63
2021/11/02 06:10:47;;;;;;;27.70;18.25;;;;;;;9.10;66.39;100202.48;1692817;82;21119;-60
2021/11/02 06:29:17;;;;;;;29.85;19.50;;;;;;;9.16;66.31;100202.97;1723354;81;21461;-62
2021/11/02 06:31:53;;;;;;;30.95;19.32;;;;;;;9.15;66.40;100205.25;1743755;80;21161;-62
2021/11/02 06:39:57;;;;;;;28.87;18.50;;;;;;;9.19;66.20;100200.94;1721313;81;21026;-60
2021/11/02 06:45:23;;;;;;;29.90;18.62;;;;;;;9.33;66.33;100199.89;1738102;80;21118;-60
2021/11/02 07:18:11;;;;;;;32.85;20.02;;;;;;;9.38;67.05;100189.86;1686954;83;21137;-61
2021/11/02 07:20:53;;;;;;;27.27;18.90;;;;;;;9.42;67.11;100193.91;1693020;83;21040;-61
2021/11/02 08:47:39;;;;;;;12.85;9.40;;;;;;;9.67;67.32;100119.73;1665415;83;21134;-60
2021/11/02 08:50:06;;;;;;;13.22;9.18;;;;;;;9.71;67.23;100114.58;1688426;83;20993;-67
2021/11/02 08:52:34;;;;;;;15.72;9.50;;;;;;;9.76;67.41;100110.27;1662536;84;21102;-63
2021/11/02 08:55:01;;;;;;;14.70;8.78;;;;;;;9.80;67.49;100107.28;1687759;83;21126;-63
2021/11/02 08:57:28;;;;;;;15.95;10.45;;;;;;;9.86;67.55;100104.62;1663742;83;22186;-61
2021/11/02 08:59:55;;;;;;;19.35;12.75;;;;;;;9.90;67.46;100099.94;1690638;83;21106;-59
2021/11/02 09:02:29;;;;;;;14.25;9.25;;;;;;;9.93;67.35;100094.44;1687186;83;21109;-59
2021/11/02 09:05:08;;;;;;;12.65;8.45;;;;;;;9.92;67.30;100090.98;1686482;83;21222;-61
2021/11/02 09:07:36;;;;;;;12.68;7.60;;;;;;;9.91;67.20;100087.99;1683429;83;21074;-62
2021/11/02 09:10:19;;;;;;;12.03;7.22;;;;;;;9.90;67.08;100087.66;1683939;83;21921;-63
2021/11/02 09:12:51;;;;;;;14.15;7.92;;;;;;;9.92;66.86;100075.67;1684236;83;21106;-64
2021/11/02 09:15:27;;;;;;;13.32;8.20;;;;;;;9.91;67.06;100077.97;1685326;83;21090;-64
2021/11/02 09:17:56;;;;;;;11.93;8.28;;;;;;;9.93;67.14;100069.47;1687155;83;21872;-63
2021/11/02 09:20:23;;;;;;;13.53;7.78;;;;;;;9.85;67.19;100067.00;1684661;83;21089;-64
2021/11/02 09:22:49;;;;;;;12.65;7.15;;;;;;;9.79;67.48;100071.44;1685412;83;21074;-62
2021/11/02 09:26:47;;;;;;;12.85;8.40;;;;;;;9.76;67.70;100053.29;1795615;77;22429;-63
2021/11/02 09:29:13;;;;;;;11.22;7.20;;;;;;;9.74;67.82;100051.27;1776281;79;21454;-63
2021/11/02 09:31:41;;;;;;;14.75;8.08;;;;;;;9.79;67.80;100050.41;1765779;79;21139;-63
2021/11/02 09:34:07;;;;;;;10.45;6.40;;;;;;;9.89;67.74;100046.55;1765461;79;21255;-62
2021/11/02 09:36:47;;;;;;;11.15;6.65;;;;;;;9.94;67.78;100039.61;1772169;79;21043;-62
2021/11/02 09:39:13;;;;;;;12.07;7.87;;;;;;;9.98;67.98;100042.33;1773406;79;21003;-62
2021/11/02 09:42:06;;;;;;;13.18;7.85;;;;;;;10.00;67.97;100041.25;1770633;79;22394;-61
2021/11/02 09:45:03;;;;;;;11.50;7.12;;;;;;;10.02;68.08;100037.19;1768950;78;21641;-61
2021/11/02 09:47:56;;;;;;;11.33;7.85;;;;;;;10.02;68.04;100034.56;1776750;79;21062;-61
2021/11/02 09:50:31;;;;;;;12.90;8.80;;;;;;;10.00;68.14;100030.73;1768155;78;21089;-63
2021/11/02 09:53:12;;;;;;;12.50;7.62;;;;;;;9.98;68.16;100029.19;1758440;80;21046;-62
2021/11/02 09:56:04;;;;;;;11.08;7.10;;;;;;;10.01;68.10;100026.30;1765439;79;21109;-63
2021/11/02 09:58:45;;;;;;;10.23;6.55;;;;;;;10.09;67.97;100008.59;1773124;78;21112;-60
2021/11/02 10:01:34;;;;;;;9.85;6.75;;;;;;;10.17;68.07;100009.61;1767764;78;21997;-61
2021/11/02 10:04:45;;;;;;;12.18;8.63;;;;;;;10.20;68.10;100011.13;1769141;79;21919;-62
2021/11/02 10:07:36;;;;;;;12.45;7.78;;;;;;;10.19;68.01;100005.05;1770672;79;21521;-62
2021/11/02 10:10:17;;;;;;;11.75;7.85;;;;;;;10.14;68.04;99995.89;1768603;79;21036;-62
2021/11/02 10:13:03;;;;;;;12.20;8.15;;;;;;;10.11;68.03;99985.14;1770900;79;21049;-63
2021/11/02 10:16:06;;;;;;;10.43;6.83;;;;;;;10.06;68.10;99982.55;1751424;80;21068;-61
2021/11/02 10:19:20;;;;;;;13.00;7.62;;;;;;;10.04;67.99;99977.42;1737500;80;21093;-64
2021/11/02 10:22:20;;;;;;;9.63;6.65;;;;;;;10.09;68.13;99968.66;1717543;81;21051;-61
2021/11/02 10:25:11;;;;;;;10.72;6.87;;;;;;;10.11;68.21;99973.30;1685771;81;21054;-66
2021/11/02 10:28:17;;;;;;;11.12;7.42;;;;;;;10.12;68.34;99963.61;1700166;81;21206;-65
2021/11/02 10:31:27;;;;;;;11.45;7.45;;;;;;;10.11;68.50;99960.16;1703430;82;21564;-64
2021/11/02 10:34:04;;;;;;;11.97;7.20;;;;;;;10.14;68.52;99957.77;1706833;82;21098;-64
2021/11/02 10:36:55;;;;;;;12.63;8.03;;;;;;;10.08;68.50;99955.16;1701932;82;21069;-63
2021/11/02 10:39:36;;;;;;;11.10;6.72;;;;;;;10.05;68.52;99954.10;1755203;79;21034;-63
2021/11/02 10:42:43;;;;;;;9.05;6.22;;;;;;;10.06;68.45;99953.15;1739068;80;22245;-63
2021/11/02 10:45:13;;;;;;;9.78;6.25;;;;;;;10.10;68.48;99946.66;1760544;80;21050;-63
2021/11/02 10:47:56;;;;;;;9.60;6.28;;;;;;;10.13;68.47;99935.88;1750545;80;21023;-64
2021/11/02 10:50:22;;;;;;;11.57;7.03;;;;;;;10.07;68.54;99933.80;1741577;80;22391;-64
2021/11/02 10:52:51;;;;;;;11.55;7.62;;;;;;;10.03;68.79;99925.80;1740831;80;21082;-63
2021/11/02 10:55:51;;;;;;;11.15;6.90;;;;;;;10.00;68.92;99924.75;1727194;81;21587;-65
2021/11/02 10:58:37;;;;;;;10.78;6.65;;;;;;;10.00;69.09;99924.28;1727584;80;21012;-64
2021/11/02 11:01:08;;;;;;;10.48;6.90;;;;;;;9.97;69.03;99921.91;1758043;79;21039;-63
2021/11/02 11:03:36;;;;;;;10.35;6.37;;;;;;;9.96;69.07;99907.58;1755356;79;21054;-63
2021/11/02 11:06:13;;;;;;;10.15;6.95;;;;;;;10.00;69.01;99899.77;1755258;79;21131;-62
2021/11/02 11:08:42;;;;;;;10.80;6.72;;;;;;;10.01;69.01;99901.45;1733781;80;21242;-60
2021/11/02 11:11:13;;;;;;;11.03;6.85;;;;;;;10.02;69.20;99898.70;1755614;80;21038;-62
2021/11/02 11:13:44;;;;;;;11.60;7.92;;;;;;;10.00;69.30;99886.17;1692590;82;21027;-62
2021/11/02 11:16:19;;;;;;;10.85;6.95;;;;;;;9.98;69.35;99884.63;1751778;79;21564;-63
2021/11/02 11:19:10;;;;;;;13.48;6.83;;;;;;;9.97;69.42;99889.52;1706234;82;20984;-62
2021/11/02 11:21:38;;;;;;;11.00;6.40;;;;;;;9.91;69.53;99883.00;1758856;79;21039;-62
2021/11/02 11:24:20;;;;;;;11.20;6.05;;;;;;;9.97;69.55;99879.00;1747318;80;22170;-62
2021/11/02 11:26:53;;;;;;;10.90;5.25;;;;;;;10.09;69.41;99885.03;1774213;79;21018;-60
2021/11/02 11:29:27;;;;;;;10.13;5.75;;;;;;;10.18;69.18;99879.79;1734544;82;21093;-62
2021/11/02 11:31:58;;;;;;;9.08;5.85;;;;;;;10.22;69.29;99882.52;1738123;79;22001;-62
2021/11/02 11:34:32;;;;;;;9.58;6.62;;;;;;;10.27;69.35;99881.28;1740618;80;21086;-62
2021/11/02 11:37:01;;;;;;;;;;;;;;;10.29;69.19;99878.02;1750772;80;21022;-62
2021/11/02 11:39:29;;;;;;;10.88;6.45;;;;;;;10.30;69.08;99862.61;1756850;79;20171;-62
2021/11/02 11:41:56;;;;;;;11.73;6.85;;;;;;;10.24;69.19;99865.30;1764590;79;21062;-62
2021/11/02 11:44:23;;;;;;;10.98;6.85;;;;;;;10.20;69.10;99862.11;1771379;79;21056;-62
2021/11/02 11:47:07;;;;;;;8.25;5.60;;;;;;;10.24;69.13;99860.05;1756869;79;21141;-62
2021/11/02 11:49:35;;;;;;;8.78;5.62;;;;;;;10.34;68.99;99857.45;1740643;80;21047;-62
2021/11/02 11:52:04;;;;;;;10.13;6.05;;;;;;;10.43;68.95;99861.09;1742298;80;21026;-62
2021/11/02 11:54:45;;;;;;;10.68;6.17;;;;;;;10.49;68.91;99857.44;1735385;80;21127;-62
2021/11/02 11:57:28;;;;;;;9.08;5.90;;;;;;;10.50;68.86;99855.64;1759376;79;21034;-64
2021/11/02 12:00:06;;;;;;;9.35;6.17;;;;;;;10.49;68.95;99861.85;1773169;79;21823;-62
2021/11/02 12:02:43;;;;;;;9.98;6.62;;;;;;;10.46;69.00;99862.97;1759250;79;21045;-61
2021/11/02 12:05:19;;;;;;;10.03;6.62;;;;;;;10.44;69.00;99864.05;1770139;79;21086;-62
2021/11/02 12:08:09;;;;;;;9.08;5.87;;;;;;;10.46;68.87;99860.83;1764138;79;21003;-61
2021/11/02 12:10:36;;;;;;;9.00;5.95;;;;;;;10.51;68.72;99856.00;1761670;79;21078;-61
2021/11/02 12:13:05;;;;;;;9.00;5.97;;;;;;;10.53;68.72;99851.42;1761866;79;21857;-61
2021/11/02 12:15:58;;;;;;;11.28;6.95;;;;;;;10.56;68.78;99853.79;1770208;79;21646;-63
2021/11/02 12:18:18;;;;;;;10.38;7.05;;;;;;;10.55;68.71;99856.88;1744349;80;21532;-62
2021/11/02 12:20:46;;;;;;;11.97;6.90;;;;;;;10.53;68.87;99854.05;1768781;79;21078;-61
2021/11/02 12:23:19;;;;;;;9.88;7.42;;;;;;;10.52;68.88;99853.70;1771561;79;21034;-61
2021/11/02 12:25:55;;;;;;;9.73;6.33;;;;;;;10.52;68.84;99848.44;1770644;79;21084;-62
2021/11/02 12:28:32;;;;;;;10.38;6.72;;;;;;;10.52;68.75;99841.86;1753227;79;20912;-63
2021/11/02 12:31:04;;;;;;;11.00;7.25;;;;;;;10.59;68.63;99842.97;1773218;79;21019;-64
2021/11/02 12:33:34;;;;;;;11.05;7.62;;;;;;;10.60;68.61;99844.16;1737592;79;21062;-62
2021/11/02 12:36:06;;;;;;;11.30;7.40;;;;;;;10.64;68.67;99842.56;1763286;79;21074;-63
2021/11/02 12:38:38;;;;;;;11.73;8.55;;;;;;;10.59;68.71;99841.19;1718840;79;21307;-62
2021/11/02 12:41:20;;;;;;;13.25;8.55;;;;;;;10.59;68.95;99839.88;1764699;79;21038;-61
2021/11/02 12:43:47;;;;;;;13.40;8.80;;;;;;;10.59;68.87;99834.61;1767745;79;21078;-60
2021/11/02 12:46:14;;;;;;;13.65;8.83;;;;;;;10.55;68.71;99833.70;1780906;79;21076;-62
2021/11/02 12:48:40;;;;;;;13.18;8.13;;;;;;;10.49;68.74;99831.14;1769731;79;21043;-62
2021/11/02 12:51:14;;;;;;;9.15;6.25;;;;;;;10.45;68.86;99821.84;1763597;79;21074;-62
2021/11/02 12:53:46;;;;;;;10.05;6.40;;;;;;;10.49;68.94;99821.08;1742729;79;21070;-62
2021/11/02 12:56:16;;;;;;;10.15;6.67;;;;;;;10.53;69.11;99812.78;1768057;79;20992;-62
2021/11/02 12:58:43;;;;;;;11.03;7.10;;;;;;;10.52;69.14;99811.61;1760357;79;21015;-62
2021/11/02 13:01:09;;;;;;;11.78;7.47;;;;;;;10.51;69.38;99813.91;1756641;79;21054;-62
2021/11/02 13:03:42;;;;;;;10.72;7.45;;;;;;;10.49;69.42;99817.98;1765710;79;23310;-61
2021/11/02 13:06:10;;;;;;;10.32;7.42;;;;;;;10.48;69.45;99817.63;1742835;80;21540;-62
2021/11/02 13:08:57;;;;;;;10.80;6.00;;;;;;;10.45;69.59;99815.27;1702711;82;21054;-61
2021/11/02 13:11:26;;;;;;;12.28;6.45;;;;;;;10.50;69.57;99817.00;1769029;80;20983;-62
2021/11/02 13:13:59;;;;;;;10.23;6.60;;;;;;;10.56;69.34;99811.20;1740795;80;21054;-62
2021/11/02 13:16:29;;;;;;;9.80;7.10;;;;;;;10.64;69.32;99799.16;1761990;79;23312;-63
2021/11/02 13:18:55;;;;;;;10.32;6.87;;;;;;;10.70;69.29;99803.38;1774307;79;21030;-61
2021/11/02 13:21:31;;;;;;;11.38;7.78;;;;;;;10.70;69.21;99798.13;1759225;79;21031;-63
2021/11/02 13:24:07;;;;;;;13.03;8.00;;;;;;;10.71;69.32;99801.61;1744562;79;21032;-62
2021/11/02 13:26:42;;;;;;;12.37;8.28;;;;;;;10.69;69.21;99795.16;1765368;79;21056;-61
2021/11/02 13:29:14;;;;;;;11.57;8.33;;;;;;;10.68;69.22;99794.80;1745500;80;21541;-62
2021/11/02 13:31:49;;;;;;;12.10;7.47;;;;;;;10.68;69.11;99788.72;1760751;79;21575;-62
2021/11/02 13:34:34;;;;;;;13.43;8.20;;;;;;;10.74;68.98;99790.31;1756747;80;21066;-64
2021/11/02 13:37:08;;;;;;;13.48;8.48;;;;;;;10.80;69.05;99789.41;1737924;80;21003;-62
2021/11/02 13:39:55;;;;;;;11.78;8.10;;;;;;;10.79;69.03;99789.88;1739455;80;21541;-63
2021/11/02 13:42:48;;;;;;;13.98;8.18;;;;;;;10.71;69.17;99787.13;1742605;80;22898;-62
2021/11/02 13:45:18;;;;;;;12.93;8.85;;;;;;;10.64;69.36;99779.42;1764847;80;21630;-62
2021/11/02 13:47:47;;;;;;;16.30;8.95;;;;;;;10.59;69.47;99779.83;1676404;83;21661;-62
2021/11/02 13:50:13;;;;;;;14.70;8.48;;;;;;;10.55;69.42;99784.53;1742860;80;21626;-62
2021/11/02 13:52:41;;;;;;;11.12;7.35;;;;;;;10.54;69.43;99778.95;1753212;80;21074;-62
2021/11/02 13:55:09;;;;;;;10.85;7.25;;;;;;;10.62;69.29;99782.19;1755928;80;21282;-62
2021/11/02 13:57:36;;;;;;;11.73;6.80;;;;;;;10.65;69.18;99774.03;1722231;82;21067;-60
2021/11/02 14:00:05;;;;;;;10.65;7.47;;;;;;;10.69;69.23;99782.47;1740414;80;21537;-61
2021/11/02 14:02:33;;;;;;;12.13;7.70;;;;;;;10.71;69.26;99777.92;1758621;80;21787;-61
2021/11/02 14:05:00;;;;;;;17.48;9.15;;;;;;;10.72;69.48;99783.52;1754344;80;21110;-61
2021/11/02 14:07:30;;;;;;;14.03;8.20;;;;;;;10.73;69.50;99779.43;1762074;79;21151;-65
2021/11/02 14:10:06;;;;;;;13.43;8.70;;;;;;;10.75;69.46;99781.92;1739096;80;21091;-62
2021/11/02 14:13:02;;;;;;;12.43;8.53;;;;;;;10.74;69.38;99777.62;1757123;80;21070;-63
2021/11/02 14:15:20;;;;;;;11.18;7.42;;;;;;;10.75;69.43;99766.95;1741065;79;21110;-61
2021/11/02 14:17:54;;;;;;;10.20;6.72;;;;;;;10.81;69.32;99771.31;1757076;80;21087;-65
2021/11/02 14:20:49;;;;;;;12.37;7.67;;;;;;;10.91;69.05;99761.61;1763373;80;22121;-59
2021/11/02 14:23:33;;;;;;;13.55;7.40;;;;;;;10.97;69.04;99759.25;1742328;80;21038;-63
2021/11/02 14:26:25;;;;;;;13.00;8.00;;;;;;;11.03;69.04;99755.70;1741631;79;21098;-62
2021/11/02 14:28:56;;;;;;;11.12;7.35;;;;;;;11.02;68.99;99754.88;1728408;79;21016;-61
2021/11/02 14:31:42;;;;;;;13.93;10.13;;;;;;;11.02;69.08;99764.59;1752547;79;21090;-62
2021/11/02 14:34:08;;;;;;;17.85;10.90;;;;;;;11.01;69.03;99765.55;1757876;79;21860;-62
2021/11/02 14:36:40;;;;;;;18.15;12.23;;;;;;;10.97;68.94;99763.20;1735967;81;21117;-64
2021/11/02 14:39:13;;;;;;;14.25;9.50;;;;;;;10.95;68.80;99763.01;1754291;79;21520;-62
2021/11/02 14:41:47;;;;;;;12.82;8.73;;;;;;;10.96;68.81;99768.14;1727118;79;21151;-63
2021/11/02 14:44:24;;;;;;;11.45;7.00;;;;;;;11.02;68.65;99762.78;1761868;79;21109;-59
2021/11/02 14:46:51;;;;;;;11.57;7.22;;;;;;;11.07;68.75;99761.05;1735066;81;22239;-63
2021/11/02 14:49:37;;;;;;;14.07;7.72;;;;;;;11.09;68.79;99763.88;1732480;79;20999;-64
2021/11/02 14:52:08;;;;;;;18.85;8.48;;;;;;;11.09;68.69;99761.23;1755044;79;21109;-61
2021/11/02 14:54:43;;;;;;;11.65;8.33;;;;;;;11.05;68.97;99761.19;1760758;79;21122;-62
2021/11/02 14:57:26;;;;;;;13.32;8.38;;;;;;;11.06;68.93;99760.70;1757197;79;21085;-61
2021/11/02 14:59:55;;;;;;;13.38;8.83;;;;;;;11.04;68.80;99760.01;1759060;79;21173;-65
2021/11/02 15:02:37;;;;;;;14.20;8.18;;;;;;;11.00;68.85;99763.41;1752692;79;21064;-61
2021/11/02 15:05:06;;;;;;;11.22;7.70;;;;;;;10.96;68.89;99761.55;1731831;80;21132;-61
2021/11/02 15:07:43;;;;;;;11.90;8.53;;;;;;;11.00;68.89;99759.47;1754742;79;21924;-61
2021/11/02 15:10:14;;;;;;;12.47;7.97;;;;;;;11.05;68.79;99764.31;1728852;79;21114;-62
2021/11/02 15:12:42;;;;;;;12.23;7.08;;;;;;;11.11;68.73;99759.78;1722898;81;21016;-62
2021/11/02 15:15:09;;;;;;;13.15;8.90;;;;;;;11.11;68.66;99758.00;1759836;79;21066;-62
2021/11/02 15:17:37;;;;;;;16.07;9.00;;;;;;;11.11;68.91;99763.27;1732449;81;21146;-62
2021/11/02 15:20:06;;;;;;;13.08;7.97;;;;;;;11.11;68.87;99764.59;1752061;79;21051;-62
2021/11/02 15:22:33;;;;;;;15.00;9.10;;;;;;;11.12;68.86;99762.77;1760150;79;21579;-60
2021/11/02 15:25:04;;;;;;;14.90;8.83;;;;;;;11.10;68.78;99766.04;1757484;79;21138;-61
2021/11/02 15:27:37;;;;;;;11.35;7.42;;;;;;;11.08;68.72;99758.77;1751493;79;21074;-63
2021/11/02 15:30:13;;;;;;;10.65;7.62;;;;;;;11.07;68.72;99762.37;1748727;81;21075;-62
2021/11/02 15:32:42;;;;;;;12.47;7.92;;;;;;;11.08;68.66;99758.77;1751586;80;21090;-61
2021/11/02 15:35:14;;;;;;;13.38;8.28;;;;;;;11.12;68.71;99766.72;1717358;81;21027;-62
2021/11/02 15:37:55;;;;;;;12.68;7.87;;;;;;;11.14;68.82;99758.19;1748749;80;21157;-63
2021/11/02 15:40:40;;;;;;;14.03;9.33;;;;;;;11.14;68.98;99762.95;1729284;80;21071;-60
2021/11/02 15:43:00;;;;;;;12.33;8.65;;;;;;;11.15;69.21;99758.55;1745584;80;22492;-61
2021/11/02 15:45:35;;;;;;;13.15;8.50;;;;;;;11.14;69.02;99755.55;1719006;81;21078;-63
2021/11/02 15:48:10;;;;;;;13.08;8.93;;;;;;;11.10;69.05;99754.19;1717699;81;21113;-62
2021/11/02 15:50:43;;;;;;;11.73;8.23;;;;;;;11.07;69.07;99767.63;1750635;79;21124;-61
2021/11/02 15:53:11;;;;;;;13.93;8.20;;;;;;;11.06;69.03;99765.96;1751003;80;21066;-61
2021/11/02 15:55:38;;;;;;;12.78;8.40;;;;;;;11.11;68.86;99769.85;1753411;80;21544;-61
2021/11/02 15:58:08;;;;;;;11.68;7.87;;;;;;;11.14;68.87;99763.45;1755467;80;21046;-61
2021/11/02 16:00:43;;;;;;;14.40;8.28;;;;;;;11.18;68.86;99762.22;1752956;80;20992;-62
2021/11/02 16:03:10;;;;;;;13.45;8.90;;;;;;;11.21;69.02;99760.59;1748674;80;22251;-62
2021/11/02 16:05:38;;;;;;;12.63;8.50;;;;;;;11.25;69.15;99761.98;1746946;80;21363;-62
2021/11/02 16:08:22;;;;;;;13.00;8.55;;;;;;;11.26;69.04;99759.70;1754418;80;21079;-62
2021/11/02 16:10:52;;;;;;;13.98;8.85;;;;;;;11.28;68.93;99764.80;1751980;80;20936;-62
2021/11/02 16:13:24;;;;;;;11.97;8.68;;;;;;;11.26;68.81;99758.85;1752516;80;21090;-61
2021/11/02 16:15:51;;;;;;;14.87;8.48;;;;;;;11.20;68.86;99758.13;1755579;80;21124;-60
2021/11/02 16:18:24;;;;;;;11.18;7.58;;;;;;;11.18;68.88;99760.90;1750034;80;21671;-60
2021/11/02 16:20:59;;;;;;;12.45;7.87;;;;;;;11.21;68.81;99757.95;1720357;79;21106;-61
2021/11/02 16:23:38;;;;;;;15.13;8.85;;;;;;;11.25;68.94;99763.30;1757412;80;21516;-60
2021/11/02 16:26:21;;;;;;;13.10;8.78;;;;;;;11.28;68.98;99756.44;1747958;80;21042;-61
2021/11/02 16:28:48;;;;;;;15.13;9.08;;;;;;;11.25;69.07;99750.63;1764432;80;21090;-59
2021/11/02 16:31:24;;;;;;;18.35;9.43;;;;;;;11.21;69.17;99752.69;1763413;79;21662;-58
2021/11/02 16:33:50;;;;;;;15.68;9.70;;;;;;;11.18;69.13;99750.36;1756270;80;21611;-60
2021/11/02 16:36:24;;;;;;;15.43;10.58;;;;;;;11.14;69.13;99751.60;1767473;80;21087;-59
2021/11/02 16:39:00;;;;;;;14.05;9.58;;;;;;;11.10;69.22;99751.56;1768829;79;21133;-59
2021/11/02 16:41:32;;;;;;;12.85;7.70;;;;;;;11.11;69.38;99752.73;1763333;79;21136;-60
2021/11/02 16:44:05;;;;;;;15.25;9.40;;;;;;;11.21;69.26;99756.64;1758008;79;21653;-60
2021/11/02 16:46:44;;;;;;;15.03;8.48;;;;;;;11.28;69.14;99757.75;1762156;80;21087;-59
2021/11/02 16:49:23;;;;;;;15.40;9.53;;;;;;;11.33;68.93;99755.98;1766198;79;21060;-60